Crescent, Missouri
Current Conditions -  °F | °C
As of 3:54 PM on Saturday 20 Dec 2014 (Local Time) from KSUS Reporting Station
Overcast Overcast  
Wind Chill: 38°   Ceiling: 2800
Heat Index: 42°   Visibility: 10mi
Dew Point: 33°   Wind: 6mph
Humidity: 70%   Direction: 110°ESE
Pressure: 30.22"   Gusts: NA
Location:  38.5081°N, 90.6523°W
Report Text: KSUS 202154Z 11005KT 10SM OVC028 06/01 A3022 RMK AO2 SLP238 T00560006
Loading
Personal Weather Stations






























Interactive Weather Map New forecast layout! Learn more

10-Day Weather Forecast

Advertisements
Track Severe Weather on mobile